sensor_id;sensor_type;location;lat;lon;timestamp;P1;durP1;ratioP1;P2;durP2;ratioP2
850;SDS011;412;51.400;7.480;2023-04-25T00:01:45;6.97;;;6.03;;
850;SDS011;412;51.400;7.480;2023-04-25T00:04:11;9.73;;;6.40;;
850;SDS011;412;51.400;7.480;2023-04-25T00:06:37;10.53;;;6.70;;
850;SDS011;412;51.400;7.480;2023-04-25T00:09:03;8.13;;;6.30;;
850;SDS011;412;51.400;7.480;2023-04-25T00:11:32;9.97;;;6.30;;
850;SDS011;412;51.400;7.480;2023-04-25T00:13:59;9.43;;;6.50;;
850;SDS011;412;51.400;7.480;2023-04-25T00:16:27;8.07;;;6.33;;
850;SDS011;412;51.400;7.480;2023-04-25T00:18:54;12.57;;;6.30;;
850;SDS011;412;51.400;7.480;2023-04-25T00:21:20;8.70;;;5.90;;
850;SDS011;412;51.400;7.480;2023-04-25T00:23:46;8.90;;;6.63;;
850;SDS011;412;51.400;7.480;2023-04-25T00:26:12;9.87;;;6.07;;
850;SDS011;412;51.400;7.480;2023-04-25T00:28:38;9.80;;;6.10;;
850;SDS011;412;51.400;7.480;2023-04-25T00:31:05;10.40;;;6.43;;
850;SDS011;412;51.400;7.480;2023-04-25T00:33:30;9.87;;;6.00;;
850;SDS011;412;51.400;7.480;2023-04-25T00:35:56;8.93;;;5.43;;
850;SDS011;412;51.400;7.480;2023-04-25T00:38:22;10.07;;;6.30;;
850;SDS011;412;51.400;7.480;2023-04-25T00:40:48;10.97;;;6.10;;
850;SDS011;412;51.400;7.480;2023-04-25T00:43:13;6.57;;;5.97;;
850;SDS011;412;51.400;7.480;2023-04-25T00:45:39;8.77;;;6.33;;
850;SDS011;412;51.400;7.480;2023-04-25T00:48:05;7.07;;;5.93;;
850;SDS011;412;51.400;7.480;2023-04-25T00:50:34;9.23;;;6.20;;
850;SDS011;412;51.400;7.480;2023-04-25T00:53:01;8.27;;;6.57;;
850;SDS011;412;51.400;7.480;2023-04-25T00:55:28;7.70;;;6.23;;
850;SDS011;412;51.400;7.480;2023-04-25T00:57:56;8.90;;;6.57;;
850;SDS011;412;51.400;7.480;2023-04-25T01:00:22;9.30;;;6.80;;
850;SDS011;412;51.400;7.480;2023-04-25T01:02:48;12.80;;;7.90;;
850;SDS011;412;51.400;7.480;2023-04-25T01:05:15;9.60;;;7.13;;
850;SDS011;412;51.400;7.480;2023-04-25T01:07:41;12.70;;;8.17;;
850;SDS011;412;51.400;7.480;2023-04-25T01:10:07;7.40;;;6.63;;
850;SDS011;412;51.400;7.480;2023-04-25T01:12:33;11.73;;;7.67;;
850;SDS011;412;51.400;7.480;2023-04-25T01:14:59;7.40;;;6.70;;
850;SDS011;412;51.400;7.480;2023-04-25T01:17:25;11.30;;;7.60;;
850;SDS011;412;51.400;7.480;2023-04-25T01:19:52;8.40;;;7.50;;
850;SDS011;412;51.400;7.480;2023-04-25T01:22:18;10.63;;;7.20;;
850;SDS011;412;51.400;7.480;2023-04-25T01:24:44;11.47;;;7.50;;
850;SDS011;412;51.400;7.480;2023-04-25T01:27:10;7.97;;;7.00;;
850;SDS011;412;51.400;7.480;2023-04-25T01:29:36;10.50;;;8.27;;
850;SDS011;412;51.400;7.480;2023-04-25T01:32:02;9.67;;;8.07;;
850;SDS011;412;51.400;7.480;2023-04-25T01:34:29;9.40;;;7.67;;
850;SDS011;412;51.400;7.480;2023-04-25T01:36:55;11.17;;;8.43;;
850;SDS011;412;51.400;7.480;2023-04-25T01:39:21;10.60;;;8.33;;
850;SDS011;412;51.400;7.480;2023-04-25T01:41:47;12.43;;;7.40;;
850;SDS011;412;51.400;7.480;2023-04-25T01:44:13;15.73;;;8.17;;
850;SDS011;412;51.400;7.480;2023-04-25T01:46:40;9.23;;;7.70;;
850;SDS011;412;51.400;7.480;2023-04-25T01:49:06;9.77;;;8.07;;
850;SDS011;412;51.400;7.480;2023-04-25T01:51:32;10.20;;;8.13;;
850;SDS011;412;51.400;7.480;2023-04-25T01:53:58;10.03;;;7.63;;
850;SDS011;412;51.400;7.480;2023-04-25T01:56:23;12.83;;;8.93;;
850;SDS011;412;51.400;7.480;2023-04-25T01:58:50;9.33;;;8.40;;
850;SDS011;412;51.400;7.480;2023-04-25T02:01:16;10.23;;;8.53;;
850;SDS011;412;51.400;7.480;2023-04-25T02:03:43;9.33;;;8.00;;
850;SDS011;412;51.400;7.480;2023-04-25T02:06:08;9.23;;;8.20;;
850;SDS011;412;51.400;7.480;2023-04-25T02:08:34;11.53;;;8.17;;
850;SDS011;412;51.400;7.480;2023-04-25T02:11:02;11.20;;;8.40;;
850;SDS011;412;51.400;7.480;2023-04-25T02:13:28;16.97;;;9.17;;
850;SDS011;412;51.400;7.480;2023-04-25T02:15:54;10.77;;;8.30;;
850;SDS011;412;51.400;7.480;2023-04-25T02:18:19;10.87;;;7.80;;
850;SDS011;412;51.400;7.480;2023-04-25T02:20:46;11.20;;;7.60;;
850;SDS011;412;51.400;7.480;2023-04-25T02:23:12;10.37;;;8.30;;
850;SDS011;412;51.400;7.480;2023-04-25T02:25:37;11.23;;;8.67;;
850;SDS011;412;51.400;7.480;2023-04-25T02:28:03;8.90;;;7.03;;
850;SDS011;412;51.400;7.480;2023-04-25T02:30:29;11.20;;;8.60;;
850;SDS011;412;51.400;7.480;2023-04-25T02:32:55;11.43;;;8.87;;
850;SDS011;412;51.400;7.480;2023-04-25T02:35:21;13.37;;;8.67;;
850;SDS011;412;51.400;7.480;2023-04-25T02:37:47;11.50;;;10.30;;
850;SDS011;412;51.400;7.480;2023-04-25T02:40:13;12.60;;;11.30;;
850;SDS011;412;51.400;7.480;2023-04-25T02:42:41;13.23;;;9.40;;
850;SDS011;412;51.400;7.480;2023-04-25T02:45:07;11.93;;;9.20;;
850;SDS011;412;51.400;7.480;2023-04-25T02:47:33;13.50;;;9.00;;
850;SDS011;412;51.400;7.480;2023-04-25T02:49:59;14.77;;;9.63;;
850;SDS011;412;51.400;7.480;2023-04-25T02:52:24;12.17;;;9.67;;
850;SDS011;412;51.400;7.480;2023-04-25T02:54:50;12.47;;;9.60;;
850;SDS011;412;51.400;7.480;2023-04-25T02:57:16;12.63;;;9.50;;
850;SDS011;412;51.400;7.480;2023-04-25T02:59:42;12.93;;;10.13;;
850;SDS011;412;51.400;7.480;2023-04-25T03:02:08;13.47;;;10.27;;
850;SDS011;412;51.400;7.480;2023-04-25T03:04:33;10.03;;;9.00;;
850;SDS011;412;51.400;7.480;2023-04-25T03:06:59;15.17;;;9.40;;
850;SDS011;412;51.400;7.480;2023-04-25T03:09:25;12.00;;;9.40;;
850;SDS011;412;51.400;7.480;2023-04-25T03:11:50;12.20;;;8.90;;
850;SDS011;412;51.400;7.480;2023-04-25T03:14:16;13.70;;;9.33;;
850;SDS011;412;51.400;7.480;2023-04-25T03:16:42;16.37;;;11.30;;
850;SDS011;412;51.400;7.480;2023-04-25T03:19:08;17.07;;;10.13;;
850;SDS011;412;51.400;7.480;2023-04-25T03:21:34;18.27;;;10.60;;
850;SDS011;412;51.400;7.480;2023-04-25T03:24:00;11.53;;;10.33;;
850;SDS011;412;51.400;7.480;2023-04-25T03:26:27;13.20;;;10.70;;
850;SDS011;412;51.400;7.480;2023-04-25T03:28:53;11.70;;;8.90;;
850;SDS011;412;51.400;7.480;2023-04-25T03:31:19;13.13;;;9.63;;
850;SDS011;412;51.400;7.480;2023-04-25T03:33:45;12.03;;;9.73;;
850;SDS011;412;51.400;7.480;2023-04-25T03:36:11;13.23;;;10.20;;
850;SDS011;412;51.400;7.480;2023-04-25T03:38:37;14.70;;;10.27;;
850;SDS011;412;51.400;7.480;2023-04-25T03:41:02;14.20;;;12.20;;
850;SDS011;412;51.400;7.480;2023-04-25T03:43:28;12.50;;;11.20;;
850;SDS011;412;51.400;7.480;2023-04-25T03:45:54;12.77;;;9.93;;
850;SDS011;412;51.400;7.480;2023-04-25T03:48:20;11.53;;;8.13;;
850;SDS011;412;51.400;7.480;2023-04-25T03:50:50;11.70;;;9.10;;
850;SDS011;412;51.400;7.480;2023-04-25T03:53:16;14.13;;;8.70;;
850;SDS011;412;51.400;7.480;2023-04-25T03:55:42;12.43;;;8.13;;
850;SDS011;412;51.400;7.480;2023-04-25T03:58:08;10.47;;;8.80;;
850;SDS011;412;51.400;7.480;2023-04-25T04:00:34;12.13;;;8.07;;
850;SDS011;412;51.400;7.480;2023-04-25T04:03:00;16.73;;;8.70;;
850;SDS011;412;51.400;7.480;2023-04-25T04:05:26;10.77;;;7.60;;
850;SDS011;412;51.400;7.480;2023-04-25T04:07:52;10.83;;;9.33;;
850;SDS011;412;51.400;7.480;2023-04-25T04:10:18;11.63;;;8.63;;
850;SDS011;412;51.400;7.480;2023-04-25T04:12:44;10.60;;;9.50;;
850;SDS011;412;51.400;7.480;2023-04-25T04:15:10;11.97;;;9.13;;
850;SDS011;412;51.400;7.480;2023-04-25T04:17:37;10.63;;;8.70;;
850;SDS011;412;51.400;7.480;2023-04-25T04:20:03;14.90;;;9.17;;
850;SDS011;412;51.400;7.480;2023-04-25T04:22:29;13.70;;;8.50;;
850;SDS011;412;51.400;7.480;2023-04-25T04:24:55;12.17;;;8.60;;
850;SDS011;412;51.400;7.480;2023-04-25T04:27:22;10.40;;;9.30;;
850;SDS011;412;51.400;7.480;2023-04-25T04:29:48;14.80;;;10.97;;
850;SDS011;412;51.400;7.480;2023-04-25T04:32:15;15.83;;;11.10;;
850;SDS011;412;51.400;7.480;2023-04-25T04:34:41;14.37;;;9.60;;
850;SDS011;412;51.400;7.480;2023-04-25T04:37:07;20.77;;;10.60;;
850;SDS011;412;51.400;7.480;2023-04-25T04:39:33;15.37;;;9.27;;
850;SDS011;412;51.400;7.480;2023-04-25T04:41:59;8.63;;;6.50;;
850;SDS011;412;51.400;7.480;2023-04-25T04:44:26;5.07;;;4.57;;
850;SDS011;412;51.400;7.480;2023-04-25T04:46:53;4.77;;;4.37;;
850;SDS011;412;51.400;7.480;2023-04-25T04:49:19;5.43;;;5.03;;
850;SDS011;412;51.400;7.480;2023-04-25T04:51:46;6.60;;;3.90;;
850;SDS011;412;51.400;7.480;2023-04-25T04:54:12;4.10;;;3.77;;
850;SDS011;412;51.400;7.480;2023-04-25T04:56:38;4.47;;;4.07;;
850;SDS011;412;51.400;7.480;2023-04-25T04:59:04;6.10;;;4.20;;
850;SDS011;412;51.400;7.480;2023-04-25T05:01:30;6.67;;;6.10;;
850;SDS011;412;51.400;7.480;2023-04-25T05:03:56;6.60;;;5.97;;
850;SDS011;412;51.400;7.480;2023-04-25T05:06:25;5.27;;;3.80;;
850;SDS011;412;51.400;7.480;2023-04-25T05:08:54;6.40;;;5.90;;
850;SDS011;412;51.400;7.480;2023-04-25T05:11:21;6.03;;;4.33;;
850;SDS011;412;51.400;7.480;2023-04-25T05:13:49;7.80;;;5.00;;
850;SDS011;412;51.400;7.480;2023-04-25T05:16:15;7.93;;;5.17;;
850;SDS011;412;51.400;7.480;2023-04-25T05:18:41;7.10;;;4.90;;
850;SDS011;412;51.400;7.480;2023-04-25T05:21:07;5.50;;;5.10;;
850;SDS011;412;51.400;7.480;2023-04-25T05:23:33;6.30;;;5.03;;
850;SDS011;412;51.400;7.480;2023-04-25T05:25:59;7.70;;;6.97;;
850;SDS011;412;51.400;7.480;2023-04-25T05:28:25;11.07;;;6.63;;
850;SDS011;412;51.400;7.480;2023-04-25T05:30:50;5.10;;;3.63;;
850;SDS011;412;51.400;7.480;2023-04-25T05:33:17;5.60;;;4.70;;
850;SDS011;412;51.400;7.480;2023-04-25T05:35:43;6.63;;;4.67;;
850;SDS011;412;51.400;7.480;2023-04-25T05:38:09;5.87;;;5.23;;
850;SDS011;412;51.400;7.480;2023-04-25T05:40:35;7.53;;;4.00;;
850;SDS011;412;51.400;7.480;2023-04-25T05:43:01;10.73;;;6.10;;
850;SDS011;412;51.400;7.480;2023-04-25T05:45:27;7.80;;;6.70;;
850;SDS011;412;51.400;7.480;2023-04-25T05:47:53;6.80;;;4.37;;
850;SDS011;412;51.400;7.480;2023-04-25T05:50:19;7.73;;;4.33;;
850;SDS011;412;51.400;7.480;2023-04-25T05:52:44;10.53;;;4.73;;
850;SDS011;412;51.400;7.480;2023-04-25T05:55:10;6.77;;;4.97;;
850;SDS011;412;51.400;7.480;2023-04-25T05:57:36;7.30;;;5.40;;
850;SDS011;412;51.400;7.480;2023-04-25T06:00:02;7.77;;;6.80;;
850;SDS011;412;51.400;7.480;2023-04-25T06:02:29;9.43;;;5.77;;
850;SDS011;412;51.400;7.480;2023-04-25T06:04:54;9.50;;;5.53;;
850;SDS011;412;51.400;7.480;2023-04-25T06:07:20;7.63;;;6.83;;
850;SDS011;412;51.400;7.480;2023-04-25T06:09:46;9.73;;;5.77;;
850;SDS011;412;51.400;7.480;2023-04-25T06:12:11;8.93;;;7.50;;
850;SDS011;412;51.400;7.480;2023-04-25T06:14:37;8.27;;;6.10;;
850;SDS011;412;51.400;7.480;2023-04-25T06:17:03;11.00;;;6.70;;
850;SDS011;412;51.400;7.480;2023-04-25T06:19:33;10.03;;;7.30;;
850;SDS011;412;51.400;7.480;2023-04-25T06:22:00;12.13;;;6.70;;
850;SDS011;412;51.400;7.480;2023-04-25T06:24:26;7.70;;;7.00;;
850;SDS011;412;51.400;7.480;2023-04-25T06:26:53;14.53;;;9.20;;
850;SDS011;412;51.400;7.480;2023-04-25T06:29:19;9.77;;;7.17;;
850;SDS011;412;51.400;7.480;2023-04-25T06:31:44;8.13;;;6.70;;
850;SDS011;412;51.400;7.480;2023-04-25T06:34:10;14.23;;;10.63;;
850;SDS011;412;51.400;7.480;2023-04-25T06:36:36;14.03;;;8.20;;
850;SDS011;412;51.400;7.480;2023-04-25T06:39:02;13.40;;;9.40;;
850;SDS011;412;51.400;7.480;2023-04-25T06:41:27;12.43;;;7.80;;
850;SDS011;412;51.400;7.480;2023-04-25T06:43:53;14.33;;;6.53;;
850;SDS011;412;51.400;7.480;2023-04-25T06:46:19;10.67;;;6.70;;
850;SDS011;412;51.400;7.480;2023-04-25T06:48:45;10.13;;;7.23;;
850;SDS011;412;51.400;7.480;2023-04-25T06:51:11;10.80;;;8.60;;
850;SDS011;412;51.400;7.480;2023-04-25T06:53:38;16.27;;;8.43;;
850;SDS011;412;51.400;7.480;2023-04-25T06:56:04;11.40;;;8.23;;
850;SDS011;412;51.400;7.480;2023-04-25T06:58:31;14.27;;;9.67;;
850;SDS011;412;51.400;7.480;2023-04-25T07:00:57;9.93;;;7.80;;
850;SDS011;412;51.400;7.480;2023-04-25T07:03:22;9.53;;;7.23;;
850;SDS011;412;51.400;7.480;2023-04-25T07:05:49;13.83;;;8.57;;
850;SDS011;412;51.400;7.480;2023-04-25T07:08:15;9.67;;;8.10;;
850;SDS011;412;51.400;7.480;2023-04-25T07:10:41;9.10;;;8.10;;
850;SDS011;412;51.400;7.480;2023-04-25T07:13:07;15.20;;;8.83;;
850;SDS011;412;51.400;7.480;2023-04-25T07:15:33;15.60;;;8.67;;
850;SDS011;412;51.400;7.480;2023-04-25T07:17:59;12.40;;;9.60;;
850;SDS011;412;51.400;7.480;2023-04-25T07:20:25;13.17;;;8.30;;
850;SDS011;412;51.400;7.480;2023-04-25T07:22:52;14.70;;;7.30;;
850;SDS011;412;51.400;7.480;2023-04-25T07:25:18;10.47;;;7.23;;
850;SDS011;412;51.400;7.480;2023-04-25T07:27:44;11.50;;;7.50;;
850;SDS011;412;51.400;7.480;2023-04-25T07:30:10;13.50;;;6.43;;
850;SDS011;412;51.400;7.480;2023-04-25T07:32:37;8.30;;;5.60;;
850;SDS011;412;51.400;7.480;2023-04-25T07:35:04;10.50;;;5.80;;
850;SDS011;412;51.400;7.480;2023-04-25T07:37:32;9.50;;;5.23;;
850;SDS011;412;51.400;7.480;2023-04-25T07:39:58;8.37;;;6.30;;
850;SDS011;412;51.400;7.480;2023-04-25T07:42:24;10.13;;;5.77;;
850;SDS011;412;51.400;7.480;2023-04-25T07:44:50;10.10;;;6.40;;
850;SDS011;412;51.400;7.480;2023-04-25T07:47:16;12.27;;;6.03;;
850;SDS011;412;51.400;7.480;2023-04-25T07:49:44;12.30;;;6.07;;
850;SDS011;412;51.400;7.480;2023-04-25T07:52:10;10.20;;;5.40;;
850;SDS011;412;51.400;7.480;2023-04-25T07:54:36;8.57;;;6.03;;
850;SDS011;412;51.400;7.480;2023-04-25T07:57:02;5.67;;;5.17;;
850;SDS011;412;51.400;7.480;2023-04-25T07:59:28;9.23;;;4.07;;
850;SDS011;412;51.400;7.480;2023-04-25T08:01:53;8.50;;;4.07;;
850;SDS011;412;51.400;7.480;2023-04-25T08:04:19;10.60;;;5.20;;
850;SDS011;412;51.400;7.480;2023-04-25T08:06:45;8.93;;;4.60;;
850;SDS011;412;51.400;7.480;2023-04-25T08:09:11;9.13;;;4.90;;
850;SDS011;412;51.400;7.480;2023-04-25T08:11:37;7.70;;;4.67;;
850;SDS011;412;51.400;7.480;2023-04-25T08:14:03;8.90;;;4.00;;
850;SDS011;412;51.400;7.480;2023-04-25T08:16:29;9.33;;;5.50;;
850;SDS011;412;51.400;7.480;2023-04-25T08:18:55;12.33;;;3.90;;
850;SDS011;412;51.400;7.480;2023-04-25T08:21:21;10.90;;;4.30;;
850;SDS011;412;51.400;7.480;2023-04-25T08:23:46;6.70;;;3.87;;
850;SDS011;412;51.400;7.480;2023-04-25T08:26:12;8.20;;;4.80;;
850;SDS011;412;51.400;7.480;2023-04-25T08:28:38;7.73;;;4.20;;
850;SDS011;412;51.400;7.480;2023-04-25T08:31:03;7.03;;;3.90;;
850;SDS011;412;51.400;7.480;2023-04-25T08:33:29;8.30;;;3.90;;
850;SDS011;412;51.400;7.480;2023-04-25T08:35:56;7.87;;;4.27;;
850;SDS011;412;51.400;7.480;2023-04-25T08:38:22;6.30;;;5.13;;
850;SDS011;412;51.400;7.480;2023-04-25T08:40:51;7.30;;;5.07;;
850;SDS011;412;51.400;7.480;2023-04-25T08:43:18;7.10;;;4.90;;
850;SDS011;412;51.400;7.480;2023-04-25T08:45:45;9.00;;;3.83;;
850;SDS011;412;51.400;7.480;2023-04-25T08:48:12;6.07;;;4.60;;
850;SDS011;412;51.400;7.480;2023-04-25T08:53:16;8.20;;;4.47;;
850;SDS011;412;51.400;7.480;2023-04-25T08:55:46;6.83;;;5.30;;
850;SDS011;412;51.400;7.480;2023-04-25T08:58:13;4.90;;;4.20;;
850;SDS011;412;51.400;7.480;2023-04-25T09:00:39;8.67;;;5.60;;
850;SDS011;412;51.400;7.480;2023-04-25T09:03:05;6.90;;;4.50;;
850;SDS011;412;51.400;7.480;2023-04-25T09:05:34;4.33;;;3.20;;
850;SDS011;412;51.400;7.480;2023-04-25T09:08:01;7.93;;;3.30;;
850;SDS011;412;51.400;7.480;2023-04-25T09:10:27;9.50;;;3.20;;
850;SDS011;412;51.400;7.480;2023-04-25T09:13:12;4.10;;;3.80;;
850;SDS011;412;51.400;7.480;2023-04-25T09:15:48;6.40;;;3.50;;
850;SDS011;412;51.400;7.480;2023-04-25T09:18:29;3.57;;;3.27;;
850;SDS011;412;51.400;7.480;2023-04-25T09:20:58;9.77;;;3.43;;
850;SDS011;412;51.400;7.480;2023-04-25T09:23:46;6.50;;;4.20;;
850;SDS011;412;51.400;7.480;2023-04-25T09:26:13;6.07;;;3.97;;
850;SDS011;412;51.400;7.480;2023-04-25T09:28:42;7.10;;;3.00;;
850;SDS011;412;51.400;7.480;2023-04-25T09:31:09;5.93;;;4.00;;
850;SDS011;412;51.400;7.480;2023-04-25T09:33:40;6.60;;;3.87;;
850;SDS011;412;51.400;7.480;2023-04-25T09:36:07;3.30;;;3.10;;
850;SDS011;412;51.400;7.480;2023-04-25T09:38:41;5.43;;;5.03;;
850;SDS011;412;51.400;7.480;2023-04-25T09:41:08;5.40;;;4.23;;
850;SDS011;412;51.400;7.480;2023-04-25T09:43:35;5.60;;;4.17;;
850;SDS011;412;51.400;7.480;2023-04-25T09:46:01;3.63;;;3.20;;
850;SDS011;412;51.400;7.480;2023-04-25T09:48:28;4.93;;;3.50;;
850;SDS011;412;51.400;7.480;2023-04-25T09:51:04;3.40;;;3.10;;
850;SDS011;412;51.400;7.480;2023-04-25T09:53:37;7.13;;;3.20;;
850;SDS011;412;51.400;7.480;2023-04-25T09:56:05;4.13;;;3.30;;
850;SDS011;412;51.400;7.480;2023-04-25T09:58:32;7.80;;;4.33;;
850;SDS011;412;51.400;7.480;2023-04-25T10:00:59;4.33;;;3.40;;
850;SDS011;412;51.400;7.480;2023-04-25T10:03:29;6.00;;;3.27;;
850;SDS011;412;51.400;7.480;2023-04-25T10:05:57;3.80;;;2.40;;
850;SDS011;412;51.400;7.480;2023-04-25T10:08:25;6.27;;;3.17;;
850;SDS011;412;51.400;7.480;2023-04-25T10:10:53;4.33;;;3.50;;
850;SDS011;412;51.400;7.480;2023-04-25T10:13:20;7.07;;;4.00;;
850;SDS011;412;51.400;7.480;2023-04-25T10:15:46;4.27;;;2.67;;
850;SDS011;412;51.400;7.480;2023-04-25T10:18:12;6.60;;;3.00;;
850;SDS011;412;51.400;7.480;2023-04-25T10:20:38;3.53;;;2.70;;
850;SDS011;412;51.400;7.480;2023-04-25T10:23:11;6.90;;;4.17;;
850;SDS011;412;51.400;7.480;2023-04-25T10:25:38;5.93;;;3.13;;
850;SDS011;412;51.400;7.480;2023-04-25T10:28:06;3.37;;;3.10;;
850;SDS011;412;51.400;7.480;2023-04-25T10:30:32;4.73;;;4.13;;
850;SDS011;412;51.400;7.480;2023-04-25T10:32:58;6.80;;;3.13;;
850;SDS011;412;51.400;7.480;2023-04-25T10:35:25;4.63;;;2.77;;
850;SDS011;412;51.400;7.480;2023-04-25T10:38:03;4.13;;;3.20;;
850;SDS011;412;51.400;7.480;2023-04-25T10:40:30;3.47;;;2.90;;
850;SDS011;412;51.400;7.480;2023-04-25T10:46:02;3.47;;;2.93;;
850;SDS011;412;51.400;7.480;2023-04-25T10:48:38;4.90;;;2.70;;
850;SDS011;412;51.400;7.480;2023-04-25T10:51:25;4.20;;;3.80;;
850;SDS011;412;51.400;7.480;2023-04-25T10:53:57;4.07;;;3.87;;
850;SDS011;412;51.400;7.480;2023-04-25T10:56:24;4.47;;;3.80;;
850;SDS011;412;51.400;7.480;2023-04-25T10:58:52;6.33;;;3.63;;
850;SDS011;412;51.400;7.480;2023-04-25T11:01:36;3.60;;;3.30;;
850;SDS011;412;51.400;7.480;2023-04-25T11:04:03;5.60;;;3.40;;
850;SDS011;412;51.400;7.480;2023-04-25T11:06:46;3.40;;;3.20;;
850;SDS011;412;51.400;7.480;2023-04-25T11:09:37;6.07;;;2.80;;
850;SDS011;412;51.400;7.480;2023-04-25T11:12:07;3.27;;;2.80;;
850;SDS011;412;51.400;7.480;2023-04-25T11:14:33;3.60;;;3.30;;
850;SDS011;412;51.400;7.480;2023-04-25T11:16:59;5.20;;;3.30;;
850;SDS011;412;51.400;7.480;2023-04-25T11:19:26;2.67;;;2.33;;
850;SDS011;412;51.400;7.480;2023-04-25T11:21:56;3.57;;;2.60;;
850;SDS011;412;51.400;7.480;2023-04-25T11:24:32;2.77;;;2.40;;
850;SDS011;412;51.400;7.480;2023-04-25T11:26:59;5.27;;;2.30;;
850;SDS011;412;51.400;7.480;2023-04-25T11:29:29;3.40;;;3.10;;
850;SDS011;412;51.400;7.480;2023-04-25T11:31:56;4.83;;;2.80;;
850;SDS011;412;51.400;7.480;2023-04-25T11:34:23;3.10;;;2.80;;
850;SDS011;412;51.400;7.480;2023-04-25T11:36:50;4.50;;;2.63;;
850;SDS011;412;51.400;7.480;2023-04-25T11:39:20;3.23;;;2.53;;
850;SDS011;412;51.400;7.480;2023-04-25T11:41:46;4.43;;;3.50;;
850;SDS011;412;51.400;7.480;2023-04-25T11:44:15;4.30;;;3.23;;
850;SDS011;412;51.400;7.480;2023-04-25T11:46:42;3.33;;;2.70;;
850;SDS011;412;51.400;7.480;2023-04-25T11:49:08;5.70;;;2.90;;
850;SDS011;412;51.400;7.480;2023-04-25T11:51:43;3.73;;;3.43;;
850;SDS011;412;51.400;7.480;2023-04-25T11:54:12;3.17;;;2.50;;
850;SDS011;412;51.400;7.480;2023-04-25T11:56:44;5.23;;;4.37;;
850;SDS011;412;51.400;7.480;2023-04-25T11:59:10;4.77;;;3.60;;
850;SDS011;412;51.400;7.480;2023-04-25T12:01:37;3.97;;;2.60;;
850;SDS011;412;51.400;7.480;2023-04-25T12:04:13;4.20;;;3.90;;
850;SDS011;412;51.400;7.480;2023-04-25T12:06:40;5.10;;;4.60;;
850;SDS011;412;51.400;7.480;2023-04-25T12:09:08;4.70;;;4.30;;
850;SDS011;412;51.400;7.480;2023-04-25T12:11:45;8.67;;;2.67;;
850;SDS011;412;51.400;7.480;2023-04-25T12:14:25;5.20;;;4.70;;
850;SDS011;412;51.400;7.480;2023-04-25T12:16:54;5.23;;;3.60;;
850;SDS011;412;51.400;7.480;2023-04-25T12:19:24;5.40;;;4.00;;
850;SDS011;412;51.400;7.480;2023-04-25T12:21:51;4.40;;;4.10;;
850;SDS011;412;51.400;7.480;2023-04-25T12:24:18;4.57;;;4.23;;
850;SDS011;412;51.400;7.480;2023-04-25T12:26:50;3.13;;;2.30;;
850;SDS011;412;51.400;7.480;2023-04-25T12:29:24;2.63;;;2.50;;
850;SDS011;412;51.400;7.480;2023-04-25T12:31:51;3.43;;;2.33;;
850;SDS011;412;51.400;7.480;2023-04-25T12:34:18;4.10;;;2.30;;
850;SDS011;412;51.400;7.480;2023-04-25T12:36:45;2.43;;;2.23;;
850;SDS011;412;51.400;7.480;2023-04-25T12:39:17;2.90;;;2.70;;
850;SDS011;412;51.400;7.480;2023-04-25T12:41:44;3.20;;;2.90;;
850;SDS011;412;51.400;7.480;2023-04-25T12:44:12;2.27;;;2.17;;
850;SDS011;412;51.400;7.480;2023-04-25T12:46:38;3.53;;;3.23;;
850;SDS011;412;51.400;7.480;2023-04-25T12:49:04;3.47;;;3.30;;
850;SDS011;412;51.400;7.480;2023-04-25T12:51:33;2.80;;;2.00;;
850;SDS011;412;51.400;7.480;2023-04-25T12:54:00;2.73;;;2.53;;
850;SDS011;412;51.400;7.480;2023-04-25T12:56:26;3.20;;;3.00;;
850;SDS011;412;51.400;7.480;2023-04-25T12:58:52;4.87;;;2.50;;
850;SDS011;412;51.400;7.480;2023-04-25T13:01:19;2.93;;;2.83;;
850;SDS011;412;51.400;7.480;2023-04-25T13:03:45;3.00;;;2.80;;
850;SDS011;412;51.400;7.480;2023-04-25T13:06:12;4.00;;;3.70;;
850;SDS011;412;51.400;7.480;2023-04-25T13:08:38;2.37;;;2.13;;
850;SDS011;412;51.400;7.480;2023-04-25T13:11:04;4.87;;;2.77;;
850;SDS011;412;51.400;7.480;2023-04-25T13:13:31;2.80;;;2.63;;
850;SDS011;412;51.400;7.480;2023-04-25T13:15:57;1.80;;;1.70;;
850;SDS011;412;51.400;7.480;2023-04-25T13:18:23;4.03;;;2.90;;
850;SDS011;412;51.400;7.480;2023-04-25T13:20:52;3.20;;;2.90;;
850;SDS011;412;51.400;7.480;2023-04-25T13:23:18;4.43;;;4.13;;
850;SDS011;412;51.400;7.480;2023-04-25T13:25:46;2.43;;;2.23;;
850;SDS011;412;51.400;7.480;2023-04-25T13:28:12;3.90;;;3.60;;
850;SDS011;412;51.400;7.480;2023-04-25T13:30:38;2.50;;;2.40;;
850;SDS011;412;51.400;7.480;2023-04-25T13:33:04;2.70;;;2.50;;
850;SDS011;412;51.400;7.480;2023-04-25T13:35:31;3.20;;;2.30;;
850;SDS011;412;51.400;7.480;2023-04-25T13:37:59;3.00;;;2.80;;
850;SDS011;412;51.400;7.480;2023-04-25T13:40:25;4.67;;;2.67;;
850;SDS011;412;51.400;7.480;2023-04-25T13:42:52;3.37;;;3.17;;
850;SDS011;412;51.400;7.480;2023-04-25T13:45:18;2.90;;;2.70;;
850;SDS011;412;51.400;7.480;2023-04-25T13:47:44;4.57;;;2.10;;
850;SDS011;412;51.400;7.480;2023-04-25T13:50:10;4.00;;;3.70;;
850;SDS011;412;51.400;7.480;2023-04-25T13:52:36;3.40;;;3.10;;
850;SDS011;412;51.400;7.480;2023-04-25T13:55:02;7.10;;;2.40;;
850;SDS011;412;51.400;7.480;2023-04-25T13:57:30;4.03;;;3.73;;
850;SDS011;412;51.400;7.480;2023-04-25T13:59:56;2.73;;;2.50;;
850;SDS011;412;51.400;7.480;2023-04-25T14:02:21;2.57;;;2.23;;
850;SDS011;412;51.400;7.480;2023-04-25T14:04:48;4.50;;;4.20;;
850;SDS011;412;51.400;7.480;2023-04-25T14:07:14;2.70;;;1.77;;
850;SDS011;412;51.400;7.480;2023-04-25T14:09:41;3.87;;;2.53;;
850;SDS011;412;51.400;7.480;2023-04-25T14:12:07;3.03;;;2.83;;
850;SDS011;412;51.400;7.480;2023-04-25T14:14:33;2.30;;;2.20;;
850;SDS011;412;51.400;7.480;2023-04-25T14:17:01;2.10;;;2.00;;
850;SDS011;412;51.400;7.480;2023-04-25T14:19:27;1.90;;;1.80;;
850;SDS011;412;51.400;7.480;2023-04-25T14:21:53;2.90;;;2.70;;
850;SDS011;412;51.400;7.480;2023-04-25T14:24:19;3.03;;;2.80;;
850;SDS011;412;51.400;7.480;2023-04-25T14:26:45;4.60;;;4.30;;
850;SDS011;412;51.400;7.480;2023-04-25T14:29:11;2.47;;;2.37;;
850;SDS011;412;51.400;7.480;2023-04-25T14:31:38;2.93;;;2.57;;
850;SDS011;412;51.400;7.480;2023-04-25T14:34:05;3.80;;;3.27;;
850;SDS011;412;51.400;7.480;2023-04-25T14:36:31;2.97;;;2.83;;
850;SDS011;412;51.400;7.480;2023-04-25T14:38:57;2.90;;;2.20;;
850;SDS011;412;51.400;7.480;2023-04-25T14:41:26;2.57;;;2.47;;
850;SDS011;412;51.400;7.480;2023-04-25T14:43:52;3.83;;;3.53;;
850;SDS011;412;51.400;7.480;2023-04-25T14:46:19;2.40;;;2.30;;
850;SDS011;412;51.400;7.480;2023-04-25T14:48:45;3.03;;;2.93;;
850;SDS011;412;51.400;7.480;2023-04-25T14:51:12;2.73;;;2.53;;
850;SDS011;412;51.400;7.480;2023-04-25T14:53:38;2.43;;;2.23;;
850;SDS011;412;51.400;7.480;2023-04-25T14:56:04;4.10;;;2.90;;
850;SDS011;412;51.400;7.480;2023-04-25T14:58:30;2.20;;;2.00;;
850;SDS011;412;51.400;7.480;2023-04-25T15:00:56;3.00;;;2.17;;
850;SDS011;412;51.400;7.480;2023-04-25T15:03:22;3.43;;;3.23;;
850;SDS011;412;51.400;7.480;2023-04-25T15:05:50;3.97;;;3.63;;
850;SDS011;412;51.400;7.480;2023-04-25T15:08:17;3.40;;;3.07;;
850;SDS011;412;51.400;7.480;2023-04-25T15:10:43;3.30;;;3.00;;
850;SDS011;412;51.400;7.480;2023-04-25T15:13:09;2.47;;;2.33;;
850;SDS011;412;51.400;7.480;2023-04-25T15:15:35;3.03;;;2.83;;
850;SDS011;412;51.400;7.480;2023-04-25T15:18:01;2.90;;;2.70;;
850;SDS011;412;51.400;7.480;2023-04-25T15:20:27;5.00;;;2.83;;
850;SDS011;412;51.400;7.480;2023-04-25T15:22:53;2.73;;;2.50;;
850;SDS011;412;51.400;7.480;2023-04-25T15:25:19;3.20;;;3.00;;
850;SDS011;412;51.400;7.480;2023-04-25T15:27:45;2.50;;;2.40;;
850;SDS011;412;51.400;7.480;2023-04-25T15:30:16;3.30;;;3.20;;
850;SDS011;412;51.400;7.480;2023-04-25T15:32:43;2.60;;;2.40;;
850;SDS011;412;51.400;7.480;2023-04-25T15:35:10;3.50;;;3.30;;
850;SDS011;412;51.400;7.480;2023-04-25T15:37:36;2.47;;;2.27;;
850;SDS011;412;51.400;7.480;2023-04-25T15:40:06;3.77;;;3.60;;
850;SDS011;412;51.400;7.480;2023-04-25T15:42:46;4.00;;;3.60;;
850;SDS011;412;51.400;7.480;2023-04-25T15:45:15;3.10;;;2.80;;